sensor_id;sensor_type;location;lat;lon;timestamp;pressure;altitude;pressure_sealevel;temperature;humidity
44359;BME280;30077;52.474;13.326;2022-07-22T00:00:40;101054.53;;;21.13;92.36
44359;BME280;30077;52.474;13.326;2022-07-22T00:05:40;101064.84;;;21.20;91.18
44359;BME280;30077;52.474;13.326;2022-07-22T00:10:40;101067.22;;;21.24;91.45
44359;BME280;30077;52.474;13.326;2022-07-22T00:15:41;101080.13;;;21.32;90.12
44359;BME280;30077;52.474;13.326;2022-07-22T00:20:41;101078.38;;;21.31;89.66
44359;BME280;30077;52.474;13.326;2022-07-22T00:25:42;101086.19;;;21.35;90.24
44359;BME280;30077;52.474;13.326;2022-07-22T00:30:43;101085.91;;;21.38;89.71
44359;BME280;30077;52.474;13.326;2022-07-22T00:35:43;101078.16;;;21.34;89.71
44359;BME280;30077;52.474;13.326;2022-07-22T00:40:43;101084.44;;;21.34;88.92
44359;BME280;30077;52.474;13.326;2022-07-22T00:45:44;101085.56;;;21.32;89.01
44359;BME280;30077;52.474;13.326;2022-07-22T00:50:45;101092.94;;;21.30;89.19
44359;BME280;30077;52.474;13.326;2022-07-22T00:55:45;101088.03;;;21.24;88.19
44359;BME280;30077;52.474;13.326;2022-07-22T01:00:45;101090.03;;;21.22;88.29
44359;BME280;30077;52.474;13.326;2022-07-22T01:05:45;101094.94;;;21.16;88.28
44359;BME280;30077;52.474;13.326;2022-07-22T01:10:46;101090.53;;;21.15;88.23
44359;BME280;30077;52.474;13.326;2022-07-22T01:15:46;101094.47;;;21.11;88.18
44359;BME280;30077;52.474;13.326;2022-07-22T01:20:46;101092.25;;;21.16;87.27
44359;BME280;30077;52.474;13.326;2022-07-22T01:25:46;101091.41;;;21.05;87.94
44359;BME280;30077;52.474;13.326;2022-07-22T01:30:47;101086.63;;;20.97;88.76
44359;BME280;30077;52.474;13.326;2022-07-22T01:35:50;101085.41;;;20.90;88.45
44359;BME280;30077;52.474;13.326;2022-07-22T01:40:50;101087.50;;;20.86;89.21
44359;BME280;30077;52.474;13.326;2022-07-22T01:45:52;101082.22;;;20.85;89.27
44359;BME280;30077;52.474;13.326;2022-07-22T01:50:53;101097.00;;;20.81;89.36
44359;BME280;30077;52.474;13.326;2022-07-22T01:55:53;101091.94;;;20.76;89.56
44359;BME280;30077;52.474;13.326;2022-07-22T02:00:53;101088.38;;;20.76;89.73
44359;BME280;30077;52.474;13.326;2022-07-22T02:05:54;101089.59;;;20.72;90.00
44359;BME280;30077;52.474;13.326;2022-07-22T02:10:54;101090.09;;;20.65;90.51
44359;BME280;30077;52.474;13.326;2022-07-22T02:15:55;101097.00;;;20.58;nan
44359;BME280;30077;52.474;13.326;2022-07-22T02:20:55;101100.22;;;20.52;90.84
44359;BME280;30077;52.474;13.326;2022-07-22T02:25:55;101107.31;;;20.42;91.67
44359;BME280;30077;52.474;13.326;2022-07-22T02:30:56;101101.38;;;20.37;92.10
44359;BME280;30077;52.474;13.326;2022-07-22T02:35:56;101103.47;;;20.33;92.47
44359;BME280;30077;52.474;13.326;2022-07-22T02:40:57;101093.13;;;20.27;92.85
44359;BME280;30077;52.474;13.326;2022-07-22T02:45:57;101103.34;;;20.24;93.05
44359;BME280;30077;52.474;13.326;2022-07-22T02:50:57;101100.66;;;20.24;93.29
44359;BME280;30077;52.474;13.326;2022-07-22T02:55:58;101102.13;;;20.16;93.75
44359;BME280;30077;52.474;13.326;2022-07-22T03:00:58;101102.13;;;20.16;94.09
44359;BME280;30077;52.474;13.326;2022-07-22T03:05:59;101100.41;;;20.15;94.25
44359;BME280;30077;52.474;13.326;2022-07-22T03:10:59;101105.28;;;20.10;94.39
44359;BME280;30077;52.474;13.326;2022-07-22T03:15:59;101105.03;;;20.02;94.77
44359;BME280;30077;52.474;13.326;2022-07-22T03:21:00;101089.47;;;19.93;95.76
44359;BME280;30077;52.474;13.326;2022-07-22T03:26:00;101104.59;;;19.84;96.20
44359;BME280;30077;52.474;13.326;2022-07-22T03:31:00;101104.97;;;19.80;96.53
44359;BME280;30077;52.474;13.326;2022-07-22T03:36:01;101106.91;;;19.78;96.70
44359;BME280;30077;52.474;13.326;2022-07-22T03:41:01;101118.50;;;19.80;96.76
44359;BME280;30077;52.474;13.326;2022-07-22T03:46:01;101120.50;;;19.89;96.50
44359;BME280;30077;52.474;13.326;2022-07-22T03:51:02;101121.91;;;20.06;95.69
44359;BME280;30077;52.474;13.326;2022-07-22T03:56:02;101125.72;;;20.14;95.24
44359;BME280;30077;52.474;13.326;2022-07-22T04:01:02;101119.47;;;20.25;94.74
44359;BME280;30077;52.474;13.326;2022-07-22T04:06:03;101121.59;;;20.33;94.10
44359;BME280;30077;52.474;13.326;2022-07-22T04:11:03;101130.00;;;20.41;93.74
44359;BME280;30077;52.474;13.326;2022-07-22T04:16:04;101128.28;;;20.51;92.89
44359;BME280;30077;52.474;13.326;2022-07-22T04:21:04;101129.78;;;20.55;91.94
44359;BME280;30077;52.474;13.326;2022-07-22T04:26:04;101134.22;;;20.67;91.48
44359;BME280;30077;52.474;13.326;2022-07-22T04:31:05;101126.09;;;20.67;91.32
44359;BME280;30077;52.474;13.326;2022-07-22T04:36:05;101128.56;;;20.71;91.01
44359;BME280;30077;52.474;13.326;2022-07-22T04:41:06;101133.47;;;20.77;90.07
44359;BME280;30077;52.474;13.326;2022-07-22T04:46:06;101136.69;;;20.82;90.38
44359;BME280;30077;52.474;13.326;2022-07-22T04:51:07;101137.16;;;20.87;89.42
44359;BME280;30077;52.474;13.326;2022-07-22T04:56:07;101140.47;;;21.02;88.63
44359;BME280;30077;52.474;13.326;2022-07-22T05:01:07;101142.56;;;21.09;87.93
44359;BME280;30077;52.474;13.326;2022-07-22T05:06:08;101138.13;;;21.20;87.17
44359;BME280;30077;52.474;13.326;2022-07-22T05:11:08;101145.03;;;21.35;86.09
44359;BME280;30077;52.474;13.326;2022-07-22T05:16:09;101136.34;;;21.52;85.94
44359;BME280;30077;52.474;13.326;2022-07-22T05:21:10;101137.03;;;21.66;84.97
44359;BME280;30077;52.474;13.326;2022-07-22T05:26:10;101146.34;;;21.84;84.09
44359;BME280;30077;52.474;13.326;2022-07-22T05:31:10;101145.38;;;22.06;83.47
44359;BME280;30077;52.474;13.326;2022-07-22T05:36:11;101148.91;;;22.18;82.43
44359;BME280;30077;52.474;13.326;2022-07-22T05:41:11;101147.44;;;22.14;82.27
44359;BME280;30077;52.474;13.326;2022-07-22T05:46:11;101162.19;;;22.32;81.73
44359;BME280;30077;52.474;13.326;2022-07-22T05:51:12;101150.53;;;22.41;80.76
44359;BME280;30077;52.474;13.326;2022-07-22T05:56:13;101160.75;;;22.58;80.27
44359;BME280;30077;52.474;13.326;2022-07-22T06:01:13;101154.06;;;22.63;79.81
44359;BME280;30077;52.474;13.326;2022-07-22T06:06:15;101160.63;;;22.60;79.52
44359;BME280;30077;52.474;13.326;2022-07-22T06:11:15;101156.72;;;22.83;78.50
44359;BME280;30077;52.474;13.326;2022-07-22T06:16:16;101171.16;;;22.95;77.68
44359;BME280;30077;52.474;13.326;2022-07-22T06:21:16;101171.22;;;23.15;76.78
44359;BME280;30077;52.474;13.326;2022-07-22T06:26:16;101163.78;;;23.17;76.86
44359;BME280;30077;52.474;13.326;2022-07-22T06:31:16;101170.66;;;23.21;75.85
44359;BME280;30077;52.474;13.326;2022-07-22T06:36:17;101164.69;;;23.37;75.82
44359;BME280;30077;52.474;13.326;2022-07-22T06:41:17;101159.03;;;23.69;74.41
44359;BME280;30077;52.474;13.326;2022-07-22T06:46:19;101154.44;;;23.98;73.08
44359;BME280;30077;52.474;13.326;2022-07-22T06:51:19;101152.13;;;24.23;71.77
44359;BME280;30077;52.474;13.326;2022-07-22T06:56:20;101162.16;;;24.32;71.83
44359;BME280;30077;52.474;13.326;2022-07-22T07:01:20;101155.28;;;24.28;71.29
44359;BME280;30077;52.474;13.326;2022-07-22T07:06:21;101147.50;;;24.53;70.54
44359;BME280;30077;52.474;13.326;2022-07-22T07:11:21;101158.06;;;24.75;69.03
44359;BME280;30077;52.474;13.326;2022-07-22T07:16:21;101160.31;;;24.80;69.07
44359;BME280;30077;52.474;13.326;2022-07-22T07:21:22;101157.94;;;25.04;67.83
44359;BME280;30077;52.474;13.326;2022-07-22T07:26:22;101156.53;;;24.90;67.88
44359;BME280;30077;52.474;13.326;2022-07-22T07:31:22;101152.00;;;24.81;68.37
44359;BME280;30077;52.474;13.326;2022-07-22T07:36:22;101149.97;;;24.83;69.12
44359;BME280;30077;52.474;13.326;2022-07-22T07:41:23;101149.56;;;24.78;68.71
44359;BME280;30077;52.474;13.326;2022-07-22T07:46:23;101164.16;;;24.49;69.17
44359;BME280;30077;52.474;13.326;2022-07-22T07:51:27;101157.19;;;23.98;71.33
44359;BME280;30077;52.474;13.326;2022-07-22T07:56:27;101151.25;;;24.32;70.63
44359;BME280;30077;52.474;13.326;2022-07-22T08:01:28;101155.75;;;24.80;68.67
44359;BME280;30077;52.474;13.326;2022-07-22T08:06:28;101165.84;;;24.60;67.53
44359;BME280;30077;52.474;13.326;2022-07-22T08:11:28;101163.56;;;25.30;65.99
44359;BME280;30077;52.474;13.326;2022-07-22T08:16:28;101160.22;;;26.00;63.06
44359;BME280;30077;52.474;13.326;2022-07-22T08:21:29;101160.00;;;26.37;62.81
44359;BME280;30077;52.474;13.326;2022-07-22T08:26:29;101157.59;;;26.52;60.64
44359;BME280;30077;52.474;13.326;2022-07-22T08:31:30;101160.84;;;26.81;60.58
44359;BME280;30077;52.474;13.326;2022-07-22T08:36:34;101168.00;;;26.30;61.75
44359;BME280;30077;52.474;13.326;2022-07-22T08:41:37;101171.97;;;25.47;64.56
44359;BME280;30077;52.474;13.326;2022-07-22T08:46:38;101171.13;;;24.71;66.93
44359;BME280;30077;52.474;13.326;2022-07-22T08:51:39;101177.38;;;24.25;68.49
44359;BME280;30077;52.474;13.326;2022-07-22T08:56:39;101185.13;;;24.10;69.01
44359;BME280;30077;52.474;13.326;2022-07-22T09:07:02;101175.91;;;24.69;68.16
44359;BME280;30077;52.474;13.326;2022-07-22T09:12:08;101174.59;;;25.56;65.59
44359;BME280;30077;52.474;13.326;2022-07-22T09:17:25;101171.50;;;25.51;64.54
44359;BME280;30077;52.474;13.326;2022-07-22T09:22:38;101182.69;;;25.30;65.08
44359;BME280;30077;52.474;13.326;2022-07-22T09:27:38;101180.41;;;24.88;67.23
44359;BME280;30077;52.474;13.326;2022-07-22T09:32:42;101184.50;;;24.65;69.05
44359;BME280;30077;52.474;13.326;2022-07-22T09:42:55;101196.16;;;25.14;66.03
44359;BME280;30077;52.474;13.326;2022-07-22T09:47:58;101201.38;;;25.53;64.49
44359;BME280;30077;52.474;13.326;2022-07-22T09:53:00;101213.56;;;25.86;63.58
44359;BME280;30077;52.474;13.326;2022-07-22T09:58:00;101206.00;;;25.98;63.46
44359;BME280;30077;52.474;13.326;2022-07-22T10:03:04;101207.88;;;26.15;62.25
44359;BME280;30077;52.474;13.326;2022-07-22T10:08:06;101199.00;;;26.39;61.41
44359;BME280;30077;52.474;13.326;2022-07-22T10:13:07;101202.22;;;26.34;61.82
44359;BME280;30077;52.474;13.326;2022-07-22T10:18:16;101197.59;;;26.35;62.16
44359;BME280;30077;52.474;13.326;2022-07-22T10:23:16;101196.13;;;26.40;60.69
44359;BME280;30077;52.474;13.326;2022-07-22T10:28:25;101194.63;;;26.28;60.92
44359;BME280;30077;52.474;13.326;2022-07-22T10:33:32;101197.44;;;26.80;60.06
44359;BME280;30077;52.474;13.326;2022-07-22T10:38:40;101192.13;;;26.53;61.18
44359;BME280;30077;52.474;13.326;2022-07-22T10:43:57;101188.00;;;25.77;61.64
44359;BME280;30077;52.474;13.326;2022-07-22T10:48:58;101185.91;;;25.43;62.88
44359;BME280;30077;52.474;13.326;2022-07-22T10:54:00;101188.00;;;25.77;62.43
44359;BME280;30077;52.474;13.326;2022-07-22T10:59:10;101187.94;;;26.23;61.01
44359;BME280;30077;52.474;13.326;2022-07-22T11:04:16;101191.56;;;25.42;64.66
44359;BME280;30077;52.474;13.326;2022-07-22T11:09:19;101190.56;;;25.61;64.35
44359;BME280;30077;52.474;13.326;2022-07-22T11:19:28;101196.31;;;25.03;66.83
44359;BME280;30077;52.474;13.326;2022-07-22T11:24:30;101202.97;;;25.28;65.49
44359;BME280;30077;52.474;13.326;2022-07-22T11:29:36;101192.88;;;25.83;64.52
44359;BME280;30077;52.474;13.326;2022-07-22T11:34:45;101190.50;;;26.24;62.83
44359;BME280;30077;52.474;13.326;2022-07-22T11:39:46;101187.00;;;26.58;61.08
44359;BME280;30077;52.474;13.326;2022-07-22T11:44:46;101185.44;;;26.73;61.30
44359;BME280;30077;52.474;13.326;2022-07-22T11:49:47;101180.84;;;26.12;61.77
44359;BME280;30077;52.474;13.326;2022-07-22T11:54:48;101176.19;;;26.74;60.48
44359;BME280;30077;52.474;13.326;2022-07-22T11:59:52;101186.41;;;25.57;63.39
44359;BME280;30077;52.474;13.326;2022-07-22T12:04:53;101187.25;;;25.39;63.80
44359;BME280;30077;52.474;13.326;2022-07-22T12:09:53;101189.19;;;26.10;60.64
44359;BME280;30077;52.474;13.326;2022-07-22T12:14:57;101180.97;;;25.92;61.76
44359;BME280;30077;52.474;13.326;2022-07-22T12:20:09;101188.81;;;25.42;63.42
44359;BME280;30077;52.474;13.326;2022-07-22T12:25:10;101196.00;;;25.43;63.46
44359;BME280;30077;52.474;13.326;2022-07-22T12:30:12;101191.38;;;25.71;61.40
44359;BME280;30077;52.474;13.326;2022-07-22T12:35:14;101176.94;;;25.97;60.83
44359;BME280;30077;52.474;13.326;2022-07-22T12:40:20;101180.38;;;25.99;60.85
44359;BME280;30077;52.474;13.326;2022-07-22T12:45:20;101200.09;;;25.29;62.98
44359;BME280;30077;52.474;13.326;2022-07-22T13:00:49;101184.28;;;24.48;66.71
44359;BME280;30077;52.474;13.326;2022-07-22T13:05:52;101185.03;;;25.25;63.51
44359;BME280;30077;52.474;13.326;2022-07-22T13:10:54;101193.72;;;24.25;65.97
44359;BME280;30077;52.474;13.326;2022-07-22T13:15:55;101187.53;;;25.64;62.46
44359;BME280;30077;52.474;13.326;2022-07-22T13:20:55;101192.03;;;26.01;60.76
44359;BME280;30077;52.474;13.326;2022-07-22T13:25:56;101195.44;;;26.21;58.69
44359;BME280;30077;52.474;13.326;2022-07-22T13:30:56;101192.28;;;25.34;61.04
44359;BME280;30077;52.474;13.326;2022-07-22T13:35:57;101174.72;;;24.72;63.15
44359;BME280;30077;52.474;13.326;2022-07-22T13:40:57;101187.41;;;24.34;63.95
44359;BME280;30077;52.474;13.326;2022-07-22T13:45:58;101190.22;;;24.81;61.67
44359;BME280;30077;52.474;13.326;2022-07-22T13:50:58;101181.56;;;24.86;61.11
44359;BME280;30077;52.474;13.326;2022-07-22T13:55:58;101183.25;;;24.30;61.97
44359;BME280;30077;52.474;13.326;2022-07-22T14:00:59;101187.69;;;24.60;61.70
44359;BME280;30077;52.474;13.326;2022-07-22T14:05:59;101182.69;;;24.56;62.19
44359;BME280;30077;52.474;13.326;2022-07-22T14:10:59;101169.34;;;24.43;61.80
44359;BME280;30077;52.474;13.326;2022-07-22T14:16:00;101175.09;;;24.40;63.06
44359;BME280;30077;52.474;13.326;2022-07-22T14:21:20;101162.97;;;24.62;61.94
44359;BME280;30077;52.474;13.326;2022-07-22T14:26:20;101169.22;;;24.91;60.54
44359;BME280;30077;52.474;13.326;2022-07-22T14:31:21;101159.94;;;25.12;60.70
44359;BME280;30077;52.474;13.326;2022-07-22T14:36:21;101166.03;;;24.96;59.92
44359;BME280;30077;52.474;13.326;2022-07-22T14:41:22;101155.84;;;24.51;61.11
44359;BME280;30077;52.474;13.326;2022-07-22T14:46:22;101162.25;;;24.69;61.13
44359;BME280;30077;52.474;13.326;2022-07-22T14:51:22;101167.94;;;24.19;62.19
44359;BME280;30077;52.474;13.326;2022-07-22T14:56:22;101162.44;;;24.29;61.81
44359;BME280;30077;52.474;13.326;2022-07-22T15:01:23;101166.22;;;24.09;62.14
44359;BME280;30077;52.474;13.326;2022-07-22T15:06:23;101166.19;;;23.89;62.23
44359;BME280;30077;52.474;13.326;2022-07-22T15:11:23;101167.06;;;24.19;61.44
44359;BME280;30077;52.474;13.326;2022-07-22T15:16:23;101163.88;;;24.43;61.25
44359;BME280;30077;52.474;13.326;2022-07-22T15:21:24;101150.41;;;24.22;61.21
44359;BME280;30077;52.474;13.326;2022-07-22T15:26:24;101163.03;;;24.23;60.93
44359;BME280;30077;52.474;13.326;2022-07-22T15:31:25;101147.81;;;24.40;60.22
44359;BME280;30077;52.474;13.326;2022-07-22T15:36:26;101146.84;;;23.92;61.25
44359;BME280;30077;52.474;13.326;2022-07-22T15:41:27;101132.94;;;24.15;61.11
44359;BME280;30077;52.474;13.326;2022-07-22T15:46:28;101134.56;;;24.55;59.49
44359;BME280;30077;52.474;13.326;2022-07-22T15:51:28;101126.81;;;24.87;58.55
44359;BME280;30077;52.474;13.326;2022-07-22T15:56:29;101133.78;;;25.09;57.22
44359;BME280;30077;52.474;13.326;2022-07-22T16:01:29;101128.94;;;25.49;56.62
44359;BME280;30077;52.474;13.326;2022-07-22T16:06:30;101126.88;;;25.15;56.67
44359;BME280;30077;52.474;13.326;2022-07-22T16:11:30;101127.53;;;25.44;56.38
44359;BME280;30077;52.474;13.326;2022-07-22T16:16:31;101131.13;;;26.16;54.64
44359;BME280;30077;52.474;13.326;2022-07-22T16:21:31;101122.66;;;26.02;54.14
44359;BME280;30077;52.474;13.326;2022-07-22T16:26:31;101125.81;;;26.59;53.51
44359;BME280;30077;52.474;13.326;2022-07-22T16:31:32;101128.78;;;27.08;51.98
44359;BME280;30077;52.474;13.326;2022-07-22T16:36:32;101116.28;;;28.21;48.85
44359;BME280;30077;52.474;13.326;2022-07-22T16:41:32;101119.56;;;29.05;46.82
44359;BME280;30077;52.474;13.326;2022-07-22T16:46:33;101128.97;;;29.11;46.32
44359;BME280;30077;52.474;13.326;2022-07-22T16:51:33;101112.50;;;29.11;46.23
44359;BME280;30077;52.474;13.326;2022-07-22T16:56:33;101125.03;;;29.13;45.20
44359;BME280;30077;52.474;13.326;2022-07-22T17:01:34;101120.75;;;28.39;47.24
44359;BME280;30077;52.474;13.326;2022-07-22T17:06:34;101116.25;;;27.48;49.15
44359;BME280;30077;52.474;13.326;2022-07-22T17:11:34;101102.72;;;25.91;53.04
44359;BME280;30077;52.474;13.326;2022-07-22T17:16:34;101105.31;;;25.12;55.12
44359;BME280;30077;52.474;13.326;2022-07-22T17:21:35;101113.56;;;24.65;56.71
44359;BME280;30077;52.474;13.326;2022-07-22T17:26:35;101099.72;;;24.29;57.75
44359;BME280;30077;52.474;13.326;2022-07-22T17:31:36;101103.69;;;23.97;58.37
44359;BME280;30077;52.474;13.326;2022-07-22T17:36:37;101101.25;;;23.94;59.15
44359;BME280;30077;52.474;13.326;2022-07-22T17:41:38;101107.94;;;23.32;60.89
44359;BME280;30077;52.474;13.326;2022-07-22T17:46:38;101103.28;;;23.03;61.95
44359;BME280;30077;52.474;13.326;2022-07-22T17:51:39;101101.63;;;22.91;62.66
44359;BME280;30077;52.474;13.326;2022-07-22T17:56:39;101101.25;;;22.96;62.53
44359;BME280;30077;52.474;13.326;2022-07-22T18:01:40;101101.13;;;22.67;63.12
44359;BME280;30077;52.474;13.326;2022-07-22T18:06:41;101095.69;;;22.67;63.72
44359;BME280;30077;52.474;13.326;2022-07-22T18:11:42;101095.97;;;22.64;63.71
44359;BME280;30077;52.474;13.326;2022-07-22T18:16:42;101099.09;;;22.59;63.68
44359;BME280;30077;52.474;13.326;2022-07-22T18:21:42;101100.50;;;22.53;64.50
44359;BME280;30077;52.474;13.326;2022-07-22T18:26:43;101097.22;;;22.29;65.02
44359;BME280;30077;52.474;13.326;2022-07-22T18:31:43;101091.56;;;22.00;66.17
44359;BME280;30077;52.474;13.326;2022-07-22T18:36:43;101086.28;;;21.98;66.66
44359;BME280;30077;52.474;13.326;2022-07-22T18:41:44;101084.97;;;21.60;67.95
44359;BME280;30077;52.474;13.326;2022-07-22T18:46:44;101087.72;;;21.49;68.31
44359;BME280;30077;52.474;13.326;2022-07-22T18:51:44;101081.09;;;21.42;68.54
44359;BME280;30077;52.474;13.326;2022-07-22T18:56:44;101089.03;;;21.34;69.07
44359;BME280;30077;52.474;13.326;2022-07-22T19:01:45;101092.47;;;21.36;68.89
44359;BME280;30077;52.474;13.326;2022-07-22T19:06:45;101078.66;;;21.16;69.94
44359;BME280;30077;52.474;13.326;2022-07-22T19:11:46;101093.41;;;21.03;70.54
44359;BME280;30077;52.474;13.326;2022-07-22T19:16:46;101096.00;;;20.93;71.53
44359;BME280;30077;52.474;13.326;2022-07-22T19:21:46;101093.31;;;20.82;72.39
44359;BME280;30077;52.474;13.326;2022-07-22T19:26:46;101105.13;;;20.70;72.77
44359;BME280;30077;52.474;13.326;2022-07-22T19:31:47;101110.81;;;20.66;72.47
44359;BME280;30077;52.474;13.326;2022-07-22T19:36:47;101107.59;;;20.61;73.01
44359;BME280;30077;52.474;13.326;2022-07-22T19:41:47;101106.88;;;20.59;73.33
44359;BME280;30077;52.474;13.326;2022-07-22T19:46:48;101105.84;;;20.49;73.46
44359;BME280;30077;52.474;13.326;2022-07-22T19:51:50;101111.66;;;20.44;73.65
44359;BME280;30077;52.474;13.326;2022-07-22T19:56:51;101117.31;;;20.41;73.77
44359;BME280;30077;52.474;13.326;2022-07-22T20:01:51;101126.75;;;20.36;74.35
44359;BME280;30077;52.474;13.326;2022-07-22T20:06:51;101122.19;;;20.25;74.75
44359;BME280;30077;52.474;13.326;2022-07-22T20:11:52;101119.38;;;20.27;75.26
44359;BME280;30077;52.474;13.326;2022-07-22T20:16:52;101111.59;;;20.22;75.48
44359;BME280;30077;52.474;13.326;2022-07-22T20:21:52;101108.38;;;20.17;75.22
44359;BME280;30077;52.474;13.326;2022-07-22T20:26:53;101122.31;;;20.12;75.53
44359;BME280;30077;52.474;13.326;2022-07-22T20:31:53;101117.34;;;20.06;75.78
44359;BME280;30077;52.474;13.326;2022-07-22T20:36:53;101114.78;;;20.05;75.76
44359;BME280;30077;52.474;13.326;2022-07-22T20:41:53;101107.84;;;20.01;75.93
44359;BME280;30077;52.474;13.326;2022-07-22T20:46:54;101114.38;;;19.98;76.09
44359;BME280;30077;52.474;13.326;2022-07-22T20:51:54;101111.41;;;19.90;76.34
44359;BME280;30077;52.474;13.326;2022-07-22T20:56:54;101114.22;;;19.88;76.57
44359;BME280;30077;52.474;13.326;2022-07-22T21:01:55;101133.53;;;19.84;77.01
44359;BME280;30077;52.474;13.326;2022-07-22T21:06:55;101124.78;;;19.80;77.09
44359;BME280;30077;52.474;13.326;2022-07-22T21:11:55;101121.44;;;19.77;77.74
44359;BME280;30077;52.474;13.326;2022-07-22T21:16:55;101131.75;;;19.71;78.11
44359;BME280;30077;52.474;13.326;2022-07-22T21:21:56;101130.25;;;19.67;77.86
44359;BME280;30077;52.474;13.326;2022-07-22T21:26:56;101129.75;;;19.62;78.24
44359;BME280;30077;52.474;13.326;2022-07-22T21:31:56;101128.44;;;19.55;78.71
44359;BME280;30077;52.474;13.326;2022-07-22T21:36:57;101119.56;;;19.53;78.90
44359;BME280;30077;52.474;13.326;2022-07-22T21:41:57;101124.34;;;19.49;79.44
44359;BME280;30077;52.474;13.326;2022-07-22T21:46:57;101120.28;;;19.44;79.41
44359;BME280;30077;52.474;13.326;2022-07-22T21:51:57;101124.19;;;19.40;80.16
44359;BME280;30077;52.474;13.326;2022-07-22T21:56:58;101128.75;;;19.39;80.19
44359;BME280;30077;52.474;13.326;2022-07-22T22:02:00;101140.03;;;19.33;80.22
44359;BME280;30077;52.474;13.326;2022-07-22T22:07:01;101135.91;;;19.28;80.78
44359;BME280;30077;52.474;13.326;2022-07-22T22:12:01;101141.81;;;19.21;81.44
44359;BME280;30077;52.474;13.326;2022-07-22T22:17:01;101149.38;;;19.16;81.51
44359;BME280;30077;52.474;13.326;2022-07-22T22:22:04;101147.88;;;19.12;81.71
44359;BME280;30077;52.474;13.326;2022-07-22T22:27:05;101133.84;;;19.07;82.33
44359;BME280;30077;52.474;13.326;2022-07-22T22:32:07;101141.19;;;19.05;82.56
44359;BME280;30077;52.474;13.326;2022-07-22T22:37:07;101139.47;;;19.04;83.31
44359;BME280;30077;52.474;13.326;2022-07-22T22:42:07;101138.69;;;19.02;82.73
44359;BME280;30077;52.474;13.326;2022-07-22T22:47:07;101128.88;;;19.01;83.13
44359;BME280;30077;52.474;13.326;2022-07-22T22:52:08;101141.09;;;18.94;83.12
44359;BME280;30077;52.474;13.326;2022-07-22T22:57:08;101143.81;;;18.94;83.08
44359;BME280;30077;52.474;13.326;2022-07-22T23:02:09;101131.72;;;18.87;83.89
44359;BME280;30077;52.474;13.326;2022-07-22T23:07:09;101133.44;;;18.88;83.05
44359;BME280;30077;52.474;13.326;2022-07-22T23:12:09;101137.34;;;18.84;82.95
44359;BME280;30077;52.474;13.326;2022-07-22T23:17:10;101139.50;;;18.79;82.89
44359;BME280;30077;52.474;13.326;2022-07-22T23:22:10;101134.72;;;18.69;83.23
44359;BME280;30077;52.474;13.326;2022-07-22T23:27:10;101134.31;;;18.63;83.64
44359;BME280;30077;52.474;13.326;2022-07-22T23:32:10;101132.13;;;18.55;83.63
44359;BME280;30077;52.474;13.326;2022-07-22T23:37:11;101124.78;;;18.44;83.72
44359;BME280;30077;52.474;13.326;2022-07-22T23:42:11;101114.53;;;18.37;84.21
44359;BME280;30077;52.474;13.326;2022-07-22T23:47:12;101112.94;;;18.34;84.39
44359;BME280;30077;52.474;13.326;2022-07-22T23:52:12;101115.19;;;18.27;84.71
44359;BME280;30077;52.474;13.326;2022-07-22T23:57:12;101088.59;;;18.21;84.35
